createdAt,value
2017-09-28T00:02:18.505Z,27.37
2017-09-28T00:04:46.603Z,26.87
2017-09-28T00:07:15.430Z,28.47
2017-09-28T00:09:43.519Z,28.37
2017-09-28T00:20:37.655Z,27.50
2017-09-28T00:23:05.731Z,27.40
2017-09-28T00:25:33.817Z,27.80
2017-09-28T00:28:02.644Z,27.57
2017-09-28T00:30:32.180Z,27.20
2017-09-28T00:33:01.783Z,28.80
2017-09-28T00:35:29.895Z,27.70
2017-09-28T00:37:58.792Z,25.97
2017-09-28T00:40:26.844Z,27.50
2017-09-28T00:42:55.712Z,27.13
2017-09-28T00:45:23.783Z,28.93
2017-09-28T00:47:51.856Z,29.23
2017-09-28T00:50:19.927Z,29.57
2017-09-28T00:52:48.041Z,26.07
2017-09-28T00:55:16.110Z,31.00
2017-09-28T00:57:44.924Z,26.17
2017-09-28T01:00:12.984Z,27.90
2017-09-28T01:02:41.083Z,26.77
2017-09-28T01:05:09.160Z,28.40
2017-09-28T01:07:37.238Z,27.90
2017-09-28T01:10:05.347Z,26.30
2017-09-28T01:12:34.167Z,27.87
2017-09-28T01:15:02.250Z,28.50
2017-09-28T01:17:30.340Z,27.97
2017-09-28T01:19:58.415Z,29.23
2017-09-28T01:22:26.487Z,29.67
2017-09-28T01:24:54.546Z,27.40
2017-09-28T01:27:22.639Z,30.43
2017-09-28T01:29:50.715Z,29.20
2017-09-28T01:32:18.795Z,30.00
2017-09-28T01:34:46.875Z,27.47
2017-09-28T01:37:14.974Z,29.53
2017-09-28T01:39:43.025Z,28.10
2017-09-28T01:42:11.090Z,28.70
2017-09-28T01:44:39.163Z,29.30
2017-09-28T01:47:07.231Z,28.70
2017-09-28T01:49:35.309Z,29.43
2017-09-28T01:52:03.379Z,30.03
2017-09-28T01:54:31.482Z,32.30
2017-09-28T01:57:00.334Z,29.80
2017-09-28T01:59:28.407Z,30.47
2017-09-28T02:01:56.477Z,30.30
2017-09-28T02:04:24.546Z,29.87
2017-09-28T02:06:52.620Z,27.40
2017-09-28T02:09:20.682Z,27.90
2017-09-28T02:11:48.759Z,28.20
2017-09-28T02:14:16.839Z,28.23
2017-09-28T02:16:44.974Z,29.60
2017-09-28T02:19:13.791Z,31.53
2017-09-28T02:21:41.874Z,30.07
2017-09-28T02:24:09.938Z,28.87
2017-09-28T02:26:38.012Z,28.90
2017-09-28T02:29:06.088Z,30.10
2017-09-28T02:31:34.167Z,29.17
2017-09-28T02:34:02.234Z,31.37
2017-09-28T02:36:30.316Z,31.43
2017-09-28T02:38:58.399Z,32.00
2017-09-28T02:41:26.467Z,32.90
2017-09-28T02:43:54.546Z,31.30
2017-09-28T02:46:22.609Z,30.07
2017-09-28T02:48:50.685Z,31.03
2017-09-28T02:51:18.760Z,32.60
2017-09-28T02:53:46.842Z,30.20
2017-09-28T02:56:14.959Z,33.40
2017-09-28T02:58:43.042Z,31.17
2017-09-28T03:01:11.106Z,34.47
2017-09-28T03:03:39.187Z,32.00
2017-09-28T03:06:07.270Z,32.17
2017-09-28T03:08:35.361Z,29.93
2017-09-28T03:11:03.426Z,32.30
2017-09-28T03:13:31.502Z,32.43
2017-09-28T03:15:59.583Z,34.47
2017-09-28T03:18:27.647Z,32.47
2017-09-28T03:20:55.708Z,31.13
2017-09-28T03:23:23.795Z,33.27
2017-09-28T03:25:51.899Z,30.77
2017-09-28T03:28:19.943Z,31.30
2017-09-28T03:30:48.004Z,32.00
2017-09-28T03:33:16.084Z,30.30
2017-09-28T03:35:44.159Z,31.53
2017-09-28T03:38:12.243Z,31.10
2017-09-28T03:40:40.302Z,33.97
2017-09-28T03:43:08.382Z,33.47
2017-09-28T03:45:36.478Z,32.60
2017-09-28T03:48:04.574Z,34.97
2017-09-28T03:50:32.647Z,30.50
2017-09-28T03:53:00.713Z,32.80
2017-09-28T03:55:29.632Z,33.97
2017-09-28T03:57:57.703Z,32.47
2017-09-28T04:00:26.525Z,31.30
2017-09-28T04:02:54.596Z,32.67
2017-09-28T04:05:22.687Z,32.37
2017-09-28T04:07:50.758Z,32.10
2017-09-28T04:10:18.830Z,33.37
2017-09-28T04:12:46.891Z,33.67
2017-09-28T04:15:14.986Z,34.10
2017-09-28T04:17:43.054Z,32.03
2017-09-28T04:20:11.129Z,33.57
2017-09-28T04:22:39.199Z,33.73
2017-09-28T04:25:07.287Z,34.83
2017-09-28T04:27:36.113Z,33.37
2017-09-28T04:30:04.195Z,33.87
2017-09-28T04:32:32.259Z,36.07
2017-09-28T04:35:00.351Z,33.87
2017-09-28T04:37:28.414Z,32.57
2017-09-28T04:39:56.490Z,32.90
2017-09-28T04:42:24.711Z,33.53
2017-09-28T04:44:52.768Z,33.20
2017-09-28T04:47:20.856Z,35.40
2017-09-28T04:49:48.959Z,33.67
2017-09-28T04:52:17.038Z,33.80
2017-09-28T04:54:45.102Z,33.07
2017-09-28T04:57:13.182Z,35.00
2017-09-28T04:59:41.264Z,37.40
2017-09-28T05:02:09.317Z,38.87
2017-09-28T05:04:37.409Z,34.37
2017-09-28T05:07:05.484Z,35.30
2017-09-28T05:09:33.578Z,32.00
2017-09-28T05:12:01.651Z,32.77
2017-09-28T05:14:29.735Z,32.50
2017-09-28T05:16:57.820Z,34.10
2017-09-28T05:19:26.647Z,33.77
2017-09-28T05:21:54.727Z,32.27
2017-09-28T05:24:22.808Z,34.40
2017-09-28T05:26:50.900Z,34.30
2017-09-28T05:29:18.972Z,33.60
2017-09-28T05:31:47.051Z,32.70
2017-09-28T05:34:15.135Z,33.47
2017-09-28T05:36:43.226Z,33.47
2017-09-28T05:39:11.289Z,34.90
2017-09-28T05:41:39.354Z,37.80
2017-09-28T05:44:07.442Z,35.57
2017-09-28T05:46:35.504Z,35.90
2017-09-28T05:49:03.582Z,37.00
2017-09-28T05:51:31.643Z,37.27
2017-09-28T05:53:59.728Z,34.90
2017-09-28T05:56:27.794Z,36.97
2017-09-28T05:58:55.878Z,37.07
2017-09-28T06:01:24.715Z,35.80
2017-09-28T06:03:52.809Z,35.77
2017-09-28T06:06:20.891Z,37.47
2017-09-28T06:08:48.959Z,38.97
2017-09-28T06:11:17.035Z,32.37
2017-09-28T06:13:45.101Z,37.57
2017-09-28T06:16:13.176Z,34.90
2017-09-28T06:18:41.249Z,36.30
2017-09-28T06:21:09.344Z,37.53
2017-09-28T06:23:37.411Z,35.00
2017-09-28T06:26:05.471Z,37.40
2017-09-28T06:28:33.530Z,36.40
2017-09-28T06:31:01.598Z,37.00
2017-09-28T06:33:29.675Z,37.40
2017-09-28T06:35:57.767Z,36.17
2017-09-28T06:38:25.849Z,35.97
2017-09-28T06:40:53.902Z,37.23
2017-09-28T06:43:21.988Z,36.73
2017-09-28T06:45:50.146Z,37.13
2017-09-28T06:48:18.219Z,35.50
2017-09-28T06:50:46.298Z,37.27
2017-09-28T06:53:14.376Z,38.90
2017-09-28T06:55:42.446Z,37.37
2017-09-28T06:58:10.511Z,35.30
2017-09-28T07:00:38.598Z,39.30
2017-09-28T07:03:06.668Z,37.10
2017-09-28T07:05:34.869Z,35.50
2017-09-28T07:08:02.959Z,35.43
2017-09-28T07:10:31.015Z,38.00
2017-09-28T07:12:59.134Z,36.20
2017-09-28T07:15:27.254Z,35.97
2017-09-28T07:17:55.291Z,38.43
2017-09-28T07:20:23.371Z,35.70
2017-09-28T07:22:52.204Z,39.13
2017-09-28T07:25:20.306Z,36.10
2017-09-28T07:27:48.388Z,39.70
2017-09-28T07:30:16.612Z,35.13
2017-09-28T07:32:44.703Z,36.40
2017-09-28T07:35:12.818Z,38.77
2017-09-28T07:37:40.915Z,36.37
2017-09-28T07:40:08.972Z,37.87
2017-09-28T07:42:37.054Z,35.63
2017-09-28T07:45:05.876Z,36.17
2017-09-28T07:47:33.972Z,35.03
2017-09-28T07:50:02.053Z,35.40
2017-09-28T07:52:30.135Z,32.50
2017-09-28T07:54:58.199Z,35.37
2017-09-28T07:57:26.275Z,35.00
2017-09-28T07:59:54.344Z,34.50
2017-09-28T08:02:22.427Z,34.00
2017-09-28T08:04:50.499Z,33.53
2017-09-28T08:07:18.558Z,32.90
2017-09-28T08:09:46.627Z,35.37
2017-09-28T08:12:14.699Z,33.53
2017-09-28T08:14:42.790Z,33.70
2017-09-28T08:17:10.880Z,37.23
2017-09-28T08:19:39.031Z,31.03
2017-09-28T08:22:07.148Z,33.27
2017-09-28T08:24:35.214Z,34.60
2017-09-28T08:27:03.302Z,31.30
2017-09-28T08:29:31.372Z,27.70
2017-09-28T08:31:59.448Z,28.30
2017-09-28T08:34:27.517Z,30.80
2017-09-28T08:36:55.671Z,31.20
2017-09-28T08:39:23.758Z,29.97
2017-09-28T08:41:51.831Z,29.00
2017-09-28T08:44:19.902Z,29.80
2017-09-28T08:46:47.985Z,28.60
2017-09-28T08:49:16.048Z,29.57
2017-09-28T08:51:44.122Z,27.07
2017-09-28T08:54:12.186Z,28.13
2017-09-28T08:56:40.259Z,25.43
2017-09-28T08:59:08.343Z,28.43
2017-09-28T09:01:36.413Z,28.07
2017-09-28T09:04:04.483Z,25.80
2017-09-28T09:06:32.554Z,25.53
2017-09-28T09:09:00.627Z,28.13
2017-09-28T09:11:28.694Z,26.10
2017-09-28T09:13:56.763Z,28.53
2017-09-28T09:16:24.832Z,26.07
2017-09-28T09:18:52.923Z,24.20
2017-09-28T09:21:21.754Z,25.70
2017-09-28T09:23:49.849Z,27.53
2017-09-28T09:26:17.932Z,26.87
2017-09-28T09:28:46.027Z,25.80
2017-09-28T09:31:15.254Z,25.37
2017-09-28T09:33:43.330Z,25.73
2017-09-28T09:36:12.150Z,25.73
2017-09-28T09:38:40.421Z,24.40
2017-09-28T09:41:08.488Z,23.07
2017-09-28T09:43:36.555Z,20.60
2017-09-28T09:46:04.641Z,22.43
2017-09-28T09:48:32.903Z,22.50
2017-09-28T09:51:00.994Z,23.43
2017-09-28T09:53:29.833Z,21.67
2017-09-28T09:55:57.902Z,22.10
2017-09-28T09:58:25.979Z,23.37
2017-09-28T10:00:54.045Z,21.30
2017-09-28T10:03:22.160Z,20.53
2017-09-28T10:05:50.218Z,21.73
2017-09-28T10:08:21.803Z,21.30
2017-09-28T10:11:02.762Z,19.53
2017-09-28T10:13:39.139Z,20.50
2017-09-28T10:16:22.148Z,18.03
2017-09-28T10:18:50.219Z,18.83
2017-09-28T10:21:18.286Z,19.30
2017-09-28T10:23:46.358Z,19.77
2017-09-28T10:26:14.427Z,20.90
2017-09-28T10:28:42.550Z,18.60
2017-09-28T10:31:10.622Z,20.10
2017-09-28T10:33:38.706Z,19.20
2017-09-28T10:36:06.776Z,20.57
2017-09-28T10:38:35.611Z,21.33
2017-09-28T10:41:03.678Z,17.80
2017-09-28T10:43:31.765Z,17.63
2017-09-28T10:45:59.851Z,15.67
2017-09-28T10:48:27.911Z,17.80
2017-09-28T10:50:56.019Z,16.40
2017-09-28T10:53:25.591Z,15.00
2017-09-28T10:55:53.675Z,13.77
2017-09-28T10:58:21.744Z,13.57
2017-09-28T11:00:49.806Z,16.73
2017-09-28T11:03:17.885Z,14.17
2017-09-28T11:05:45.958Z,13.47
2017-09-28T11:08:14.802Z,13.27
2017-09-28T11:10:42.888Z,12.13
2017-09-28T11:13:10.960Z,13.20
2017-09-28T11:15:39.751Z,11.60
2017-09-28T11:18:07.816Z,10.83
2017-09-28T11:20:35.892Z,10.83
2017-09-28T11:23:03.966Z,10.30
2017-09-28T11:25:32.058Z,9.80
2017-09-28T11:28:00.128Z,9.60
2017-09-28T11:30:28.208Z,9.43
2017-09-28T11:32:56.287Z,9.53
2017-09-28T11:35:25.122Z,9.40
2017-09-28T11:37:54.899Z,9.80
2017-09-28T11:40:22.957Z,9.30
2017-09-28T11:42:51.045Z,10.80
2017-09-28T11:45:19.922Z,13.03
2017-09-28T11:47:47.991Z,16.17
2017-09-28T11:50:16.063Z,14.47
2017-09-28T11:52:44.203Z,15.33
2017-09-28T11:55:12.287Z,12.33
2017-09-28T11:57:40.345Z,10.37
2017-09-28T12:00:08.439Z,10.03
2017-09-28T12:02:36.520Z,9.73
2017-09-28T12:05:04.584Z,9.67
2017-09-28T12:07:32.723Z,9.27
2017-09-28T12:10:00.789Z,8.90
2017-09-28T12:12:28.875Z,8.47
2017-09-28T12:14:56.951Z,8.17
2017-09-28T12:17:25.013Z,8.50
2017-09-28T12:19:53.072Z,8.87
2017-09-28T12:22:21.143Z,8.57
2017-09-28T12:24:49.201Z,8.50
2017-09-28T12:27:17.276Z,8.70
2017-09-28T12:29:45.338Z,8.50
2017-09-28T12:32:14.161Z,8.87
2017-09-28T12:34:42.233Z,10.97
2017-09-28T12:37:10.315Z,7.70
2017-09-28T12:39:38.395Z,8.40
2017-09-28T12:42:06.448Z,9.90
2017-09-28T12:44:34.546Z,8.97
2017-09-28T12:47:02.616Z,8.60
2017-09-28T12:49:30.690Z,8.43
2017-09-28T12:51:58.768Z,9.30
2017-09-28T12:54:26.867Z,9.90
2017-09-28T12:56:55.778Z,13.73
2017-09-28T12:59:23.863Z,14.00
2017-09-28T13:01:51.936Z,14.03
2017-09-28T13:04:20.002Z,14.00
2017-09-28T13:06:48.244Z,15.57
2017-09-28T13:09:16.309Z,15.67
2017-09-28T13:11:44.366Z,15.43
2017-09-28T13:14:12.447Z,16.40
2017-09-28T13:16:40.532Z,15.60
2017-09-28T13:19:09.388Z,15.23
2017-09-28T13:21:37.472Z,16.37
2017-09-28T13:24:05.556Z,16.27
2017-09-28T13:26:33.630Z,18.70
2017-09-28T13:29:01.740Z,20.40
2017-09-28T13:31:29.906Z,17.90
2017-09-28T13:33:58.737Z,17.60
2017-09-28T13:36:26.860Z,19.80
2017-09-28T13:38:55.677Z,17.60
2017-09-28T13:41:24.522Z,16.67
2017-09-28T13:43:52.603Z,16.30
2017-09-28T13:46:20.968Z,17.80
2017-09-28T13:48:49.042Z,19.80
2017-09-28T13:51:17.123Z,16.80
2017-09-28T13:53:45.216Z,17.37
2017-09-28T13:56:14.076Z,15.33
2017-09-28T13:58:42.139Z,17.53
2017-09-28T14:01:10.224Z,18.67
2017-09-28T14:03:38.316Z,17.77
2017-09-28T14:06:08.108Z,15.50
2017-09-28T14:08:36.208Z,15.60
2017-09-28T14:11:05.636Z,14.87
2017-09-28T14:13:33.722Z,13.70
2017-09-28T14:16:01.795Z,14.20
2017-09-28T14:18:29.891Z,14.50
2017-09-28T14:20:57.980Z,12.70
2017-09-28T14:23:26.048Z,11.97
2017-09-28T14:25:54.119Z,12.50
2017-09-28T14:28:22.192Z,13.37
2017-09-28T14:30:50.275Z,13.90
2017-09-28T14:33:19.128Z,13.00
2017-09-28T14:35:47.199Z,12.40
2017-09-28T14:38:15.264Z,13.13
2017-09-28T14:40:43.331Z,12.80
2017-09-28T14:43:11.410Z,11.80
2017-09-28T14:45:39.751Z,14.13
2017-09-28T14:48:07.833Z,12.33
2017-09-28T14:50:35.906Z,14.70
2017-09-28T14:53:04.017Z,13.57
2017-09-28T14:55:32.091Z,13.43
2017-09-28T14:58:00.176Z,13.77
2017-09-28T15:00:28.305Z,13.10
2017-09-28T15:02:56.388Z,14.43
2017-09-28T15:05:24.484Z,14.33
2017-09-28T15:07:52.560Z,13.60
2017-09-28T15:10:20.640Z,12.90
2017-09-28T15:12:49.469Z,12.77
2017-09-28T15:15:17.832Z,13.37
2017-09-28T15:17:45.922Z,12.87
2017-09-28T15:20:13.994Z,12.87
2017-09-28T15:22:42.071Z,13.13
2017-09-28T15:25:10.171Z,12.87
2017-09-28T15:27:38.238Z,13.07
2017-09-28T15:30:06.316Z,12.87
2017-09-28T15:32:34.452Z,13.50
2017-09-28T15:35:02.520Z,13.03
2017-09-28T15:37:30.605Z,12.40
2017-09-28T15:39:58.697Z,13.97
2017-09-28T15:42:26.778Z,12.00
2017-09-28T15:44:54.897Z,12.93
2017-09-28T15:47:23.716Z,13.83
2017-09-28T15:49:51.794Z,13.27
2017-09-28T15:52:19.898Z,13.20
2017-09-28T15:54:48.740Z,11.70
2017-09-28T15:57:16.813Z,13.57
2017-09-28T15:59:44.895Z,13.97
2017-09-28T16:02:12.964Z,13.40
2017-09-28T16:04:41.053Z,12.60
2017-09-28T16:07:09.120Z,13.10
2017-09-28T16:09:37.974Z,14.03
2017-09-28T16:12:06.034Z,13.37
2017-09-28T16:14:34.126Z,14.10
2017-09-28T16:17:02.203Z,13.00
2017-09-28T16:19:30.282Z,13.47
2017-09-28T16:21:58.371Z,13.50
2017-09-28T16:24:26.437Z,12.37
2017-09-28T16:26:54.537Z,13.50
2017-09-28T16:29:24.089Z,13.53
2017-09-28T16:31:52.186Z,13.33
2017-09-28T16:34:20.260Z,13.47
2017-09-28T16:36:49.219Z,14.83
2017-09-28T16:39:17.348Z,14.70
2017-09-28T16:41:45.414Z,12.80
2017-09-28T16:44:13.494Z,15.20
2017-09-28T16:46:41.584Z,14.17
2017-09-28T16:49:09.641Z,15.47
2017-09-28T16:51:37.748Z,15.20
2017-09-28T16:54:05.844Z,15.90
2017-09-28T16:56:35.217Z,13.70
2017-09-28T16:59:03.404Z,17.50
2017-09-28T17:01:32.252Z,15.93
2017-09-28T17:04:00.305Z,16.67
2017-09-28T17:06:29.219Z,16.13
2017-09-28T17:08:57.300Z,16.80
2017-09-28T17:11:25.370Z,16.30
2017-09-28T17:13:53.443Z,15.40
2017-09-28T17:16:21.522Z,15.90
2017-09-28T17:18:49.684Z,15.83
2017-09-28T17:21:17.800Z,16.50
2017-09-28T17:23:46.640Z,16.30
2017-09-28T17:26:14.750Z,19.07
2017-09-28T17:28:43.663Z,19.03
2017-09-28T17:31:11.754Z,19.57
2017-09-28T17:33:39.847Z,19.70
2017-09-28T17:36:07.934Z,18.60
2017-09-28T17:38:36.161Z,18.90
2017-09-28T17:41:04.404Z,20.97
2017-09-28T17:43:34.412Z,20.17
2017-09-28T17:46:02.597Z,17.40
2017-09-28T17:48:30.815Z,18.83
2017-09-28T17:51:00.220Z,19.43
2017-09-28T17:53:29.168Z,19.03
2017-09-28T17:55:57.403Z,18.80
2017-09-28T17:58:26.795Z,20.00
2017-09-28T18:00:56.133Z,18.97
2017-09-28T18:03:24.404Z,19.93
2017-09-28T18:05:52.559Z,20.50
2017-09-28T18:08:20.826Z,20.80
2017-09-28T18:10:49.811Z,18.40
2017-09-28T18:13:18.915Z,23.67
2017-09-28T18:15:55.239Z,20.67
2017-09-28T18:18:27.007Z,20.70
2017-09-28T18:30:40.223Z,20.80
2017-09-28T18:33:09.257Z,21.10
2017-09-28T18:35:37.476Z,21.07
2017-09-28T18:38:06.932Z,23.17
2017-09-28T18:40:35.729Z,17.90
2017-09-28T18:43:04.051Z,22.67
2017-09-28T18:45:32.348Z,24.27
2017-09-28T18:48:00.550Z,21.52
2017-09-28T18:50:29.540Z,21.70
2017-09-28T18:52:58.509Z,20.88
2017-09-28T18:55:27.707Z,21.20
2017-09-28T18:57:56.721Z,20.57
2017-09-28T19:00:25.334Z,19.63
2017-09-28T19:02:54.357Z,18.77
2017-09-28T19:05:23.446Z,20.30
2017-09-28T19:07:51.744Z,18.30
2017-09-28T19:10:19.995Z,20.43
2017-09-28T19:12:48.211Z,22.25
2017-09-28T19:15:16.533Z,20.37
2017-09-28T19:17:44.732Z,21.30
2017-09-28T19:20:12.983Z,19.67
2017-09-28T19:22:41.231Z,20.43
2017-09-28T19:25:10.097Z,20.90
2017-09-28T19:27:38.281Z,20.07
2017-09-28T19:30:06.432Z,20.87
2017-09-28T19:32:34.618Z,20.60
2017-09-28T19:35:02.671Z,21.00
2017-09-28T19:37:30.750Z,21.00
2017-09-28T19:39:58.832Z,20.60
2017-09-28T19:42:26.905Z,20.20
2017-09-28T19:44:55.768Z,21.27
2017-09-28T19:47:23.854Z,21.67
2017-09-28T19:49:52.695Z,21.80
2017-09-28T19:52:20.805Z,21.10
2017-09-28T19:54:49.236Z,25.37
2017-09-28T19:57:17.314Z,26.47
2017-09-28T19:59:45.431Z,30.23
2017-09-28T20:02:13.479Z,32.90
2017-09-28T20:04:41.554Z,28.17
2017-09-28T20:07:09.687Z,25.40
2017-09-28T20:09:37.763Z,24.93
2017-09-28T20:12:05.914Z,26.77
2017-09-28T20:14:34.803Z,24.83
2017-09-28T20:17:03.636Z,21.83
2017-09-28T20:19:31.699Z,25.33
2017-09-28T20:21:59.791Z,22.20
2017-09-28T20:24:27.886Z,22.40
2017-09-28T20:26:56.719Z,21.63
2017-09-28T20:29:24.820Z,20.87
2017-09-28T20:31:52.913Z,20.97
2017-09-28T20:34:21.002Z,25.00
2017-09-28T20:36:49.856Z,27.77
2017-09-28T20:39:17.918Z,26.10
2017-09-28T20:41:46.018Z,27.97
2017-09-28T20:44:14.077Z,26.70
2017-09-28T20:46:42.186Z,26.07
2017-09-28T20:49:11.189Z,29.53
2017-09-28T20:51:39.262Z,26.30
2017-09-28T20:54:07.343Z,27.93
2017-09-28T20:56:35.420Z,21.63
2017-09-28T20:59:03.531Z,21.67
2017-09-28T21:01:31.603Z,21.93
2017-09-28T21:03:59.683Z,21.90
2017-09-28T21:06:27.780Z,20.20
2017-09-28T21:08:56.640Z,20.00
2017-09-28T21:11:24.704Z,21.30
2017-09-28T21:13:52.789Z,20.00
2017-09-28T21:16:20.850Z,20.10
2017-09-28T21:18:48.923Z,19.87
2017-09-28T21:21:17.011Z,18.93
2017-09-28T21:23:45.844Z,19.70
2017-09-28T21:26:13.941Z,19.40
2017-09-28T21:28:42.029Z,19.00
2017-09-28T21:31:10.083Z,18.53
2017-09-28T21:33:38.191Z,19.27
2017-09-28T21:36:07.063Z,20.70
2017-09-28T21:38:35.147Z,21.37
2017-09-28T21:41:04.015Z,18.73
2017-09-28T21:43:32.106Z,20.67
2017-09-28T21:46:00.961Z,20.43
2017-09-28T21:48:29.051Z,18.60
2017-09-28T21:50:57.894Z,19.80
2017-09-28T21:53:26.649Z,19.90
2017-09-28T21:55:54.720Z,19.10
2017-09-28T21:58:22.817Z,18.63
2017-09-28T22:00:50.887Z,18.40
2017-09-28T22:03:18.968Z,18.50
2017-09-28T22:05:47.047Z,18.60
2017-09-28T22:08:15.135Z,18.93
2017-09-28T22:10:43.198Z,18.17
2017-09-28T22:13:11.288Z,17.93
2017-09-28T22:15:39.366Z,19.23
2017-09-28T22:18:08.261Z,17.57
2017-09-28T22:20:36.312Z,17.80
2017-09-28T22:23:04.412Z,17.73
2017-09-28T22:25:33.235Z,19.00
2017-09-28T22:28:01.314Z,18.13
2017-09-28T22:30:29.407Z,18.83
2017-09-28T22:32:57.480Z,18.57
2017-09-28T22:35:25.559Z,18.80
2017-09-28T22:37:53.633Z,17.80
2017-09-28T22:40:21.707Z,17.03
2017-09-28T22:42:49.790Z,18.27
2017-09-28T22:45:17.876Z,17.73
2017-09-28T22:47:45.956Z,18.17
2017-09-28T22:50:14.009Z,21.70
2017-09-28T22:52:42.087Z,22.87
2017-09-28T22:55:10.158Z,21.60
2017-09-28T22:57:38.222Z,20.93
2017-09-28T23:00:06.290Z,20.37
2017-09-28T23:02:35.147Z,19.23
2017-09-28T23:05:03.216Z,19.73
2017-09-28T23:07:31.364Z,19.50
2017-09-28T23:10:00.211Z,19.87
2017-09-28T23:12:28.269Z,19.70
2017-09-28T23:14:56.342Z,19.70
2017-09-28T23:17:24.432Z,19.43
2017-09-28T23:19:52.491Z,19.67
2017-09-28T23:22:20.647Z,19.67
2017-09-28T23:24:48.739Z,21.47
2017-09-28T23:27:16.813Z,19.43
2017-09-28T23:29:44.901Z,18.37
2017-09-28T23:32:12.976Z,20.37
2017-09-28T23:34:41.828Z,19.27
2017-09-28T23:37:09.916Z,18.90
2017-09-28T23:39:37.984Z,19.50
2017-09-28T23:42:06.042Z,19.77
2017-09-28T23:44:34.139Z,19.07
2017-09-28T23:47:02.193Z,19.43
2017-09-28T23:49:30.257Z,20.37
2017-09-28T23:51:58.354Z,20.70
2017-09-28T23:54:26.415Z,21.80
2017-09-28T23:56:54.520Z,21.37
2017-09-28T23:59:22.587Z,19.70
